Time;durP1;ratioP1;P1;durP2;ratioP2;P2;SDS_P1;SDS_P2;PMS_P1;PMS_P2;Temp;Humidity;BMP_temperature;BMP_pressure;BME280_temperature;BME280_humidity;BME280_pressure;Samples;Min_cycle;Max_cycle;Signal;HPM_P1;HPM_P2
2021/12/13 00:01:51;;;;;;;7.65;6.38;;;;;;;7.81;78.61;101760.13;4162628;28;20526;-59
2021/12/13 00:04:00;;;;;;;6.95;5.70;;;;;;;7.84;78.70;101756.78;4167083;28;20033;-61
2021/12/13 00:06:09;;;;;;;9.43;6.85;;;;;;;7.87;78.14;101759.53;4161965;28;20038;-60
2021/12/13 00:08:18;;;;;;;8.68;5.85;;;;;;;7.87;78.24;101764.72;4166428;28;20041;-58
2021/12/13 00:10:24;;;;;;;7.63;6.38;;;;;;;7.83;78.28;101762.78;4166657;28;20044;-58
2021/12/13 00:12:33;;;;;;;6.88;5.55;;;;;;;7.84;78.39;101765.44;4166562;28;20091;-59
2021/12/13 00:14:39;;;;;;;7.07;5.80;;;;;;;7.84;78.46;101764.53;4166516;28;20045;-59
2021/12/13 00:16:45;;;;;;;6.47;5.53;;;;;;;7.80;78.47;101765.25;4181274;28;20049;-57
2021/12/13 00:18:54;;;;;;;6.88;5.82;;;;;;;7.84;78.63;101762.84;4167046;28;20534;-58
2021/12/13 00:21:07;;;;;;;6.68;5.78;;;;;;;7.90;78.49;101762.25;4166306;28;20035;-56
2021/12/13 00:23:18;;;;;;;6.75;5.43;;;;;;;7.87;78.02;101764.72;4166967;28;20048;-58
2021/12/13 00:25:24;;;;;;;8.55;6.78;;;;;;;7.90;78.15;101763.94;4166594;28;20108;-58
2021/12/13 00:27:30;;;;;;;7.57;6.10;;;;;;;7.86;78.33;101763.81;4165065;28;20118;-59
2021/12/13 00:29:46;;;;;;;7.97;6.30;;;;;;;7.84;78.44;101773.22;4166506;28;20033;-57
2021/12/13 00:31:58;;;;;;;8.07;6.10;;;;;;;7.85;78.64;101772.38;4165835;28;20413;-57
2021/12/13 00:34:24;;;;;;;6.93;6.00;;;;;;;7.88;78.23;101768.19;4167388;28;20405;-58
2021/12/13 00:36:33;;;;;;;7.07;6.22;;;;;;;7.83;78.70;101774.03;4150825;28;20549;-58
2021/12/13 00:38:45;;;;;;;7.97;6.95;;;;;;;7.90;78.65;101769.13;4166044;28;20096;-58
2021/12/13 00:40:52;;;;;;;7.07;5.78;;;;;;;7.91;78.58;101768.31;4150299;28;20069;-57
2021/12/13 00:43:01;;;;;;;7.82;6.25;;;;;;;7.89;78.79;101762.19;4163704;28;20076;-57
2021/12/13 00:45:09;;;;;;;6.68;5.90;;;;;;;7.93;78.73;101769.25;4168740;28;20033;-59
2021/12/13 00:47:16;;;;;;;9.18;6.25;;;;;;;7.97;78.69;101773.78;4166720;28;20129;-60
2021/12/13 00:49:24;;;;;;;8.32;6.97;;;;;;;7.99;79.23;101775.63;4165771;28;20646;-58
2021/12/13 00:51:31;;;;;;;7.47;6.13;;;;;;;8.03;78.76;101774.03;4165776;28;20073;-56
2021/12/13 00:53:38;;;;;;;7.93;6.43;;;;;;;8.04;78.50;101771.56;4165497;28;20045;-57
2021/12/13 00:55:44;;;;;;;6.72;5.90;;;;;;;8.06;78.81;101786.25;4165867;28;20132;-58
2021/12/13 00:57:49;;;;;;;8.20;6.57;;;;;;;8.08;78.93;101790.69;4166353;28;20049;-58
2021/12/13 00:59:55;;;;;;;;;;;;;;;7.91;79.21;101786.44;4165812;28;20042;-60
2021/12/13 01:02:02;;;;;;;7.65;6.20;;;;;;;7.94;79.39;101784.88;4166280;28;20032;-59
2021/12/13 01:04:13;;;;;;;8.30;6.32;;;;;;;7.94;79.67;101792.63;4166219;28;20560;-58
2021/12/13 01:06:58;;;;;;;9.93;6.78;;;;;;;7.94;79.64;101797.81;4165779;28;20061;-56
2021/12/13 01:10:01;;;;;;;7.03;5.85;;;;;;;7.94;79.72;101796.94;4165500;28;20045;-60
2021/12/13 01:12:09;;;;;;;8.00;6.68;;;;;;;7.98;79.38;101794.56;4084423;29;20043;-59
2021/12/13 01:14:20;;;;;;;7.40;6.22;;;;;;;8.01;79.86;101799.88;4140819;28;20511;-60
2021/12/13 01:16:42;;;;;;;8.55;7.07;;;;;;;8.01;80.00;101810.22;4164589;28;20100;-59
2021/12/13 01:19:13;;;;;;;7.25;6.45;;;;;;;7.99;80.07;101811.88;4165118;28;20068;-59
2021/12/13 01:21:31;;;;;;;8.38;6.60;;;;;;;7.98;79.75;101810.09;4150096;28;20148;-58
2021/12/13 01:23:45;;;;;;;8.25;6.90;;;;;;;7.92;80.55;101815.00;4148890;28;20052;-59
2021/12/13 01:26:02;;;;;;;9.05;7.95;;;;;;;7.95;80.53;101819.44;4158420;28;20042;-60
2021/12/13 01:28:12;;;;;;;9.10;8.00;;;;;;;7.92;81.14;101819.28;4164741;28;20049;-57
2021/12/13 01:30:18;;;;;;;8.98;7.32;;;;;;;7.86;81.00;101819.88;4165049;28;20076;-61
2021/12/13 01:32:22;;;;;;;10.18;8.18;;;;;;;7.83;81.16;101818.03;4165657;28;20129;-58
2021/12/13 01:34:27;;;;;;;9.90;8.05;;;;;;;7.78;81.79;101827.31;4165512;28;20037;-59
2021/12/13 01:36:48;;;;;;;9.32;7.47;;;;;;;7.76;81.62;101815.09;4165176;28;20045;-59
2021/12/13 01:38:54;;;;;;;11.90;8.48;;;;;;;7.75;82.05;101819.34;4164203;28;20120;-62
2021/12/13 01:41:10;;;;;;;9.68;8.45;;;;;;;7.76;82.19;101826.31;4181224;28;20073;-58
2021/12/13 01:43:20;;;;;;;10.05;8.52;;;;;;;7.77;82.27;101834.97;4180039;28;20045;-58
2021/12/13 01:45:26;;;;;;;11.80;8.70;;;;;;;7.73;82.30;101833.06;4163688;28;20053;-60
2021/12/13 01:47:32;;;;;;;9.65;8.13;;;;;;;7.75;82.34;101826.25;4165434;28;20128;-57
2021/12/13 01:49:39;;;;;;;12.65;8.48;;;;;;;7.80;82.23;101827.38;4163193;28;20049;-56
2021/12/13 01:51:43;;;;;;;9.60;8.52;;;;;;;7.83;82.02;101830.09;4165381;28;20083;-58
2021/12/13 01:53:50;;;;;;;11.10;8.38;;;;;;;7.80;82.20;101822.19;4165000;28;20048;-60
2021/12/13 01:55:59;;;;;;;9.98;8.50;;;;;;;7.84;81.82;101826.69;4166567;28;20144;-61
2021/12/13 01:58:26;;;;;;;11.23;8.10;;;;;;;7.80;82.36;101825.66;4164133;28;20149;-59
2021/12/13 02:01:08;;;;;;;8.93;7.55;;;;;;;7.85;82.63;101829.34;4162669;28;20139;-56
2021/12/13 02:02:59;;;;;;;9.77;8.23;;;;;;;7.88;82.30;101822.53;4161974;28;20041;-62
2021/12/13 02:05:08;;;;;;;10.57;8.00;;;;;;;7.93;82.15;101829.72;4163326;28;20119;-64
2021/12/13 02:07:13;;;;;;;9.70;8.05;;;;;;;7.92;82.20;101822.75;4164493;28;20056;-58
2021/12/13 02:09:20;;;;;;;10.68;8.00;;;;;;;7.98;82.24;101823.03;4163497;28;20041;-58
2021/12/13 02:11:26;;;;;;;10.00;7.97;;;;;;;8.00;81.83;101826.59;4164574;28;20406;-57
2021/12/13 02:13:37;;;;;;;10.07;7.97;;;;;;;8.01;81.61;101817.13;4164117;28;20116;-59
2021/12/13 02:18:05;;;;;;;9.32;6.70;;;;;;;8.01;81.69;101830.94;4164394;28;20060;-60
2021/12/13 02:20:17;;;;;;;9.57;7.75;;;;;;;8.02;81.83;101818.91;4164090;28;20147;-58
2021/12/13 02:22:33;;;;;;;9.38;7.80;;;;;;;8.04;81.96;101822.44;4177339;28;20072;-59
2021/12/13 02:24:37;;;;;;;8.98;7.70;;;;;;;8.07;81.99;101821.69;4163947;28;20465;-59
2021/12/13 02:26:44;;;;;;;8.18;6.68;;;;;;;8.11;81.83;101826.22;4166324;28;20045;-60
2021/12/13 02:28:54;;;;;;;8.32;6.93;;;;;;;8.15;81.46;101828.13;4163319;28;20425;-60
2021/12/13 02:31:01;;;;;;;8.25;6.63;;;;;;;8.15;81.60;101828.13;4165024;28;20037;-57
2021/12/13 02:33:07;;;;;;;8.45;7.13;;;;;;;8.16;81.59;101822.13;4165939;28;20053;-57
2021/12/13 02:35:12;;;;;;;9.40;6.90;;;;;;;8.17;81.58;101826.50;4165803;28;20045;-59
2021/12/13 02:37:16;;;;;;;8.45;6.90;;;;;;;8.14;81.29;101821.19;4166420;28;20087;-58
2021/12/13 02:39:24;;;;;;;10.18;7.55;;;;;;;8.15;81.56;101822.97;4165448;28;20501;-61
2021/12/13 02:41:32;;;;;;;8.27;7.25;;;;;;;8.19;81.58;101827.44;4164638;28;20041;-58
2021/12/13 02:43:39;;;;;;;10.45;7.03;;;;;;;8.18;81.38;101828.28;4165819;28;20041;-60
2021/12/13 02:45:47;;;;;;;8.80;6.80;;;;;;;8.20;81.46;101826.63;4153001;28;20061;-60
2021/12/13 02:48:01;;;;;;;9.73;6.45;;;;;;;8.20;81.39;101826.63;4164572;28;20049;-60
2021/12/13 02:50:06;;;;;;;9.75;6.20;;;;;;;8.20;81.10;101826.63;4164692;28;20398;-58
2021/12/13 02:52:12;;;;;;;8.35;6.90;;;;;;;8.24;81.15;101825.09;4164753;28;20435;-59
2021/12/13 02:54:19;;;;;;;7.75;6.65;;;;;;;8.29;81.25;101836.53;4164154;28;20083;-59
2021/12/13 02:56:26;;;;;;;8.13;6.93;;;;;;;8.29;80.80;101831.34;4164455;28;20041;-59
2021/12/13 02:58:30;;;;;;;8.65;6.90;;;;;;;8.29;80.73;101832.22;4163264;28;20053;-60
2021/12/13 03:00:42;;;;;;;8.23;6.97;;;;;;;8.28;80.56;101830.47;4163403;28;20128;-60
2021/12/13 03:02:50;;;;;;;8.30;6.95;;;;;;;8.32;80.99;101827.22;4162277;28;20808;-62
2021/12/13 03:04:54;;;;;;;9.20;7.47;;;;;;;8.27;81.02;101833.00;4163872;28;20115;-62
2021/12/13 03:07:02;;;;;;;11.05;8.25;;;;;;;8.26;80.93;101826.03;4163625;28;20041;-58
2021/12/13 03:09:10;;;;;;;8.25;7.35;;;;;;;8.24;81.60;101825.09;4161974;28;20042;-59
2021/12/13 03:11:22;;;;;;;9.15;7.63;;;;;;;8.27;80.76;101827.81;4163461;28;20181;-60
2021/12/13 03:13:27;;;;;;;12.60;9.75;;;;;;;8.24;81.37;101827.69;4163965;28;20068;-60
2021/12/13 03:15:32;;;;;;;10.48;8.45;;;;;;;8.20;81.39;101826.63;4164526;28;20061;-62
2021/12/13 03:17:39;;;;;;;10.18;8.45;;;;;;;8.19;81.46;101830.94;4166033;28;20042;-62
2021/12/13 03:19:54;;;;;;;10.50;9.25;;;;;;;8.18;81.42;101830.88;4149210;28;20050;-60
2021/12/13 03:22:36;;;;;;;10.07;8.27;;;;;;;8.17;81.47;101836.84;4163746;28;20041;-58
2021/12/13 03:24:49;;;;;;;10.88;8.73;;;;;;;8.18;81.60;101830.88;4151673;28;20534;-60
2021/12/13 03:27:08;;;;;;;10.50;7.95;;;;;;;8.19;81.61;101835.22;4163527;28;20542;-59
2021/12/13 03:29:19;;;;;;;9.95;8.45;;;;;;;8.18;81.60;101843.81;4162329;28;20065;-62
2021/12/13 03:31:26;;;;;;;11.27;8.55;;;;;;;8.18;81.82;101838.63;4163869;28;20030;-62
2021/12/13 03:33:33;;;;;;;9.35;8.40;;;;;;;8.24;81.74;101838.03;4163163;28;20049;-60
2021/12/13 03:35:40;;;;;;;10.02;8.52;;;;;;;8.27;81.43;101841.63;4162834;28;20058;-61
2021/12/13 03:37:44;;;;;;;11.10;9.18;;;;;;;8.28;81.84;101847.69;4164423;28;20046;-62
2021/12/13 03:39:52;;;;;;;10.07;8.97;;;;;;;8.29;81.85;101849.47;4162294;28;20049;-59
2021/12/13 03:41:57;;;;;;;10.52;8.25;;;;;;;8.28;81.45;101861.56;4166710;28;20096;-60
2021/12/13 03:44:05;;;;;;;9.10;8.15;;;;;;;8.32;81.32;101845.34;4166896;28;20049;-59
2021/12/13 03:46:14;;;;;;;9.90;8.13;;;;;;;8.38;81.47;101847.31;4166535;28;20120;-64
2021/12/13 03:48:22;;;;;;;10.25;9.20;;;;;;;8.38;81.10;101845.63;4166519;28;20048;-60
2021/12/13 03:50:28;;;;;;;10.57;8.45;;;;;;;8.35;81.34;101854.94;4166060;28;20092;-62
2021/12/13 03:52:32;;;;;;;12.68;9.65;;;;;;;8.36;81.00;101855.00;4165891;28;20034;-59
2021/12/13 03:54:39;;;;;;;9.60;8.60;;;;;;;8.38;81.19;101860.25;4165091;28;20041;-61
2021/12/13 03:56:46;;;;;;;11.35;9.60;;;;;;;8.38;81.21;101852.47;4165791;28;20046;-60
2021/12/13 03:58:52;;;;;;;11.60;9.00;;;;;;;8.39;80.84;101860.31;4166447;28;20045;-61
2021/12/13 04:00:59;;;;;;;12.15;9.48;;;;;;;8.44;80.78;101857.06;4163738;28;20461;-59
2021/12/13 04:03:09;;;;;;;10.63;9.30;;;;;;;8.40;81.22;101856.06;4166138;28;20471;-61
2021/12/13 04:05:17;;;;;;;10.35;9.20;;;;;;;8.46;81.28;101861.53;4164334;28;20045;-56
2021/12/13 04:07:24;;;;;;;12.43;9.32;;;;;;;8.43;81.05;101860.50;4166084;28;20487;-58
2021/12/13 04:09:29;;;;;;;11.00;9.15;;;;;;;8.39;81.46;101865.50;4164314;28;20091;-55
2021/12/13 04:11:32;;;;;;;13.52;9.48;;;;;;;8.39;81.26;101864.63;4164863;28;20532;-59
2021/12/13 04:13:40;;;;;;;11.27;9.45;;;;;;;8.41;81.66;101862.09;4163664;28;20069;-58
2021/12/13 04:15:56;;;;;;;11.52;9.95;;;;;;;8.35;81.82;101871.38;4165057;28;20099;-59
2021/12/13 04:18:12;;;;;;;13.40;9.77;;;;;;;8.35;82.26;101867.91;4164672;28;20116;-62
2021/12/13 04:20:21;;;;;;;11.88;10.20;;;;;;;8.35;82.16;101866.22;4164087;28;20068;-58
2021/12/13 04:22:28;;;;;;;10.82;9.65;;;;;;;8.31;82.22;101865.97;4165158;28;20518;-59
2021/12/13 04:24:35;;;;;;;11.35;8.57;;;;;;;8.35;82.53;101870.47;4164647;28;20052;-58
2021/12/13 04:26:41;;;;;;;11.82;9.13;;;;;;;8.37;82.14;101864.56;4164092;28;20057;-59
2021/12/13 04:28:46;;;;;;;14.38;9.48;;;;;;;8.38;82.25;101871.53;4164614;28;20502;-60
2021/12/13 04:30:54;;;;;;;10.88;9.40;;;;;;;8.41;82.49;101872.47;4163745;28;20494;-60
2021/12/13 04:33:00;;;;;;;11.57;8.75;;;;;;;8.45;82.17;101879.63;4164878;28;20466;-61
2021/12/13 04:35:09;;;;;;;10.70;9.00;;;;;;;8.51;82.14;101878.19;4160863;28;20068;-59
2021/12/13 04:37:17;;;;;;;9.55;7.93;;;;;;;8.50;81.85;101878.13;4162498;28;20092;-61
2021/12/13 04:39:28;;;;;;;11.95;8.45;;;;;;;8.50;81.75;101876.41;4163367;28;20561;-57
2021/12/13 04:41:36;;;;;;;9.48;7.80;;;;;;;8.48;81.93;101884.94;4163479;28;20045;-58
2021/12/13 04:43:39;;;;;;;9.98;7.90;;;;;;;8.47;82.26;101877.97;4165021;28;20045;-61
2021/12/13 04:45:45;;;;;;;10.27;7.97;;;;;;;8.48;82.01;101882.34;4164721;28;20076;-58
2021/12/13 04:47:57;;;;;;;11.27;7.93;;;;;;;8.51;81.84;101885.06;4164715;28;20088;-60
2021/12/13 04:50:10;;;;;;;10.02;7.53;;;;;;;8.49;81.82;101886.72;4154962;28;20042;-60
2021/12/13 04:52:17;;;;;;;9.93;6.65;;;;;;;8.53;81.87;101891.22;4164485;28;20083;-60
2021/12/13 04:54:22;;;;;;;9.90;7.57;;;;;;;8.50;81.65;101888.50;4164416;28;20091;-62
2021/12/13 04:56:29;;;;;;;13.40;7.68;;;;;;;8.49;81.73;101892.78;4164321;28;20045;-58
2021/12/13 04:58:33;;;;;;;11.55;7.88;;;;;;;8.51;82.06;101890.25;4164779;28;20041;-58
2021/12/13 05:00:43;;;;;;;9.50;7.95;;;;;;;8.48;81.91;101888.41;4163460;28;20042;-60
2021/12/13 05:02:49;;;;;;;11.15;8.05;;;;;;;8.47;82.12;101893.50;4164068;28;20046;-58
2021/12/13 05:04:55;;;;;;;10.50;8.93;;;;;;;8.47;82.21;101897.00;4162691;28;20133;-59
2021/12/13 05:07:00;;;;;;;11.82;9.20;;;;;;;8.45;82.46;101905.53;4163906;28;20049;-60
2021/12/13 05:09:08;;;;;;;9.30;8.30;;;;;;;8.46;82.42;101905.59;4162258;28;20045;-60
2021/12/13 05:11:11;;;;;;;10.95;9.02;;;;;;;8.49;82.01;101899.66;4163629;28;20120;-60
2021/12/13 05:13:17;;;;;;;11.93;8.50;;;;;;;8.48;82.27;101906.53;4163959;28;20552;-59
2021/12/13 05:15:26;;;;;;;11.15;8.52;;;;;;;8.50;82.29;101910.09;4163930;28;20099;-60
2021/12/13 05:17:37;;;;;;;11.88;8.90;;;;;;;8.50;82.09;101909.22;4163985;28;20095;-62
2021/12/13 05:19:45;;;;;;;9.73;8.32;;;;;;;8.45;82.63;101911.59;4163693;28;20404;-60
2021/12/13 05:21:51;;;;;;;9.95;8.02;;;;;;;8.42;82.64;101905.34;4164466;28;20494;-61
2021/12/13 05:23:57;;;;;;;11.88;9.50;;;;;;;8.46;82.48;101912.50;4164237;28;20152;-59
2021/12/13 05:26:04;;;;;;;9.77;8.20;;;;;;;8.39;83.04;101917.34;4163922;28;20128;-62
2021/12/13 05:28:11;;;;;;;9.35;7.95;;;;;;;8.40;83.49;101915.66;4164724;28;20354;-60
2021/12/13 05:30:18;;;;;;;10.88;8.52;;;;;;;8.37;83.51;101912.91;4162930;28;20072;-59
2021/12/13 05:32:26;;;;;;;10.77;8.50;;;;;;;8.39;83.35;101919.94;4164363;28;20072;-59
2021/12/13 05:34:35;;;;;;;10.80;8.73;;;;;;;8.43;83.28;101914.91;4163327;28;20393;-58
2021/12/13 05:36:38;;;;;;;11.88;8.98;;;;;;;8.43;83.54;101912.31;4164158;28;20045;-60
2021/12/13 05:38:44;;;;;;;13.00;9.50;;;;;;;8.48;83.42;101923.81;4163596;28;20048;-62
2021/12/13 05:40:47;;;;;;;11.48;8.25;;;;;;;8.47;83.27;101917.75;4163392;28;20052;-62
2021/12/13 05:42:55;;;;;;;13.63;8.70;;;;;;;8.44;83.33;101921.84;4164107;28;20065;-58
2021/12/13 05:44:58;;;;;;;9.05;7.70;;;;;;;8.41;83.85;101920.03;4162928;28;20520;-62
2021/12/13 05:47:05;;;;;;;12.38;7.93;;;;;;;8.42;83.88;101920.91;4164031;28;20111;-58
2021/12/13 05:49:11;;;;;;;11.32;8.32;;;;;;;8.42;83.72;101924.38;4165664;28;20041;-61
2021/12/13 05:51:28;;;;;;;13.98;9.65;;;;;;;8.46;83.46;101921.16;4163809;28;20034;-58
2021/12/13 05:53:35;;;;;;;12.20;9.57;;;;;;;8.42;83.86;101921.78;4163133;28;20056;-60
2021/12/13 05:55:53;;;;;;;13.73;8.73;;;;;;;8.46;83.55;101921.16;4163597;28;20057;-60
2021/12/13 05:57:57;;;;;;;13.35;9.45;;;;;;;8.41;84.11;101924.31;4163693;28;20045;-60
2021/12/13 06:00:09;;;;;;;13.32;9.60;;;;;;;8.46;83.99;101933.22;4162024;28;20141;-59
2021/12/13 06:02:20;;;;;;;35.08;30.92;;;;;;;8.48;83.72;101929.88;4154623;28;20048;-61
2021/12/13 06:04:31;;;;;;;13.18;10.35;;;;;;;8.47;83.85;101934.97;4162794;28;20494;-59
2021/12/13 06:06:44;;;;;;;13.35;10.15;;;;;;;8.48;84.01;101929.00;4163917;28;20534;-58
2021/12/13 06:08:50;;;;;;;13.68;10.48;;;;;;;8.51;83.89;101932.63;4161909;28;20510;-61
2021/12/13 06:10:57;;;;;;;13.10;9.80;;;;;;;8.49;83.83;101934.25;4163692;28;20046;-60
2021/12/13 06:13:06;;;;;;;14.82;10.55;;;;;;;8.58;83.61;101938.97;4163093;28;20042;-60
2021/12/13 06:15:27;;;;;;;15.13;11.32;;;;;;;8.55;83.75;101944.00;4163172;28;20045;-60
2021/12/13 06:17:32;;;;;;;16.80;11.88;;;;;;;8.63;83.21;101946.94;4164464;28;20456;-60
2021/12/13 06:19:41;;;;;;;13.82;10.95;;;;;;;8.61;83.21;101946.88;4162096;28;20046;-59
2021/12/13 06:22:00;;;;;;;15.77;11.10;;;;;;;8.65;83.29;101947.94;4163071;28;20056;-58
2021/12/13 06:24:03;;;;;;;15.18;11.80;;;;;;;8.60;82.99;101952.91;4162405;28;20056;-61
2021/12/13 06:26:09;;;;;;;17.15;12.80;;;;;;;8.60;83.24;101946.81;4162887;28;20053;-58
2021/12/13 06:28:21;;;;;;;15.35;12.40;;;;;;;8.64;83.11;101946.16;4163538;28;20402;-57
2021/12/13 06:30:27;;;;;;;18.55;13.02;;;;;;;8.68;83.26;101956.72;4162754;28;20088;-58
2021/12/13 06:32:49;;;;;;;18.17;13.38;;;;;;;8.70;83.11;101947.31;4162854;28;20068;-58
2021/12/13 06:34:53;;;;;;;17.55;13.02;;;;;;;8.64;83.09;101951.31;4162828;28;20058;-56
2021/12/13 06:36:59;;;;;;;18.02;13.65;;;;;;;8.63;83.42;101960.81;4162862;28;20517;-59
2021/12/13 06:39:05;;;;;;;23.30;17.52;;;;;;;8.64;83.61;101954.78;4162959;28;20044;-59
2021/12/13 06:41:30;;;;;;;20.95;15.07;;;;;;;8.72;83.20;101958.63;4163074;28;20072;-57
2021/12/13 06:43:42;;;;;;;19.02;13.75;;;;;;;8.66;83.23;101967.81;4163965;28;20088;-58
2021/12/13 06:45:45;;;;;;;19.88;14.88;;;;;;;8.64;83.50;101967.75;4162714;28;20088;-59
2021/12/13 06:47:51;;;;;;;22.90;14.40;;;;;;;8.67;83.33;101970.53;4163301;28;20045;-59
2021/12/13 06:49:57;;;;;;;19.23;13.75;;;;;;;8.71;83.73;101969.81;4160389;28;20041;-60
2021/12/13 06:52:04;;;;;;;19.60;15.95;;;;;;;8.71;83.04;101974.13;4174437;28;20049;-58
2021/12/13 06:54:11;;;;;;;17.35;14.57;;;;;;;8.72;83.39;101976.78;4163381;28;20049;-57
2021/12/13 06:56:24;;;;;;;21.75;16.90;;;;;;;8.81;82.75;101981.50;4162977;28;20045;-57
2021/12/13 06:58:29;;;;;;;20.02;15.73;;;;;;;8.76;82.80;101970.06;4162996;28;20087;-55
2021/12/13 07:00:37;;;;;;;18.83;14.43;;;;;;;8.75;82.65;101973.47;4160770;28;20438;-57
2021/12/13 07:02:43;;;;;;;19.50;16.40;;;;;;;8.73;82.93;101975.97;4162349;28;20046;-61
2021/12/13 07:04:59;;;;;;;20.10;16.08;;;;;;;8.76;82.90;101988.22;4161966;28;20053;-60
2021/12/13 07:07:10;;;;;;;19.63;14.63;;;;;;;8.73;82.78;101985.44;4160072;28;20037;-62
2021/12/13 07:09:17;;;;;;;17.45;15.23;;;;;;;8.73;82.76;101988.94;4161049;28;20045;-60
2021/12/13 07:11:21;;;;;;;19.23;14.95;;;;;;;8.71;82.70;101993.16;4162601;28;20072;-58
2021/12/13 07:13:28;;;;;;;18.15;13.70;;;;;;;8.70;82.63;101988.81;4161162;28;20053;-58
2021/12/13 07:15:39;;;;;;;19.80;14.88;;;;;;;8.76;82.69;101992.47;4164411;28;20037;-58
2021/12/13 07:17:43;;;;;;;21.63;17.63;;;;;;;8.77;82.69;101997.75;4165648;28;20050;-59
2021/12/13 07:19:51;;;;;;;20.45;15.98;;;;;;;8.76;82.51;101995.06;4162533;28;20037;-58
2021/12/13 07:21:57;;;;;;;26.58;17.05;;;;;;;8.78;82.62;101999.53;4165100;28;20510;-57
2021/12/13 07:24:05;;;;;;;21.13;17.20;;;;;;;8.74;82.48;102010.56;4149894;28;20041;-59
2021/12/13 07:26:08;;;;;;;16.98;14.05;;;;;;;8.66;83.05;102004.13;4158622;28;20076;-50
2021/12/13 07:28:12;;;;;;;21.48;14.00;;;;;;;8.81;82.86;102009.16;4162157;28;20088;-52
2021/12/13 07:30:20;;;;;;;17.17;14.23;;;;;;;8.77;82.65;102012.41;4165474;28;20487;-50
2021/12/13 07:32:27;;;;;;;18.58;14.45;;;;;;;8.80;82.68;102020.34;4165117;28;20172;-52
2021/12/13 07:34:30;;;;;;;20.40;15.55;;;;;;;8.98;82.71;102017.69;4163973;28;20033;-51
2021/12/13 07:36:33;;;;;;;17.90;14.75;;;;;;;9.06;81.95;102016.34;4162125;28;20081;-59
2021/12/13 07:38:47;;;;;;;17.38;15.40;;;;;;;9.16;81.39;102021.13;4160721;28;20041;-61
2021/12/13 07:40:53;;;;;;;17.27;15.30;;;;;;;9.19;81.48;102028.19;4164407;28;20073;-61
2021/12/13 07:43:05;;;;;;;20.20;15.55;;;;;;;9.23;81.03;102024.91;4158558;28;20104;-58
2021/12/13 07:45:26;;;;;;;19.98;16.73;;;;;;;9.23;80.65;102027.50;4164079;28;20050;-59
2021/12/13 07:47:33;;;;;;;20.80;16.00;;;;;;;9.24;80.60;102032.75;4165466;28;20103;-58
2021/12/13 07:49:40;;;;;;;20.52;15.88;;;;;;;9.19;80.86;102043.75;4164683;28;20084;-62
2021/12/13 07:51:51;;;;;;;20.52;15.73;;;;;;;9.22;80.80;102043.88;4163284;28;20041;-60
2021/12/13 07:54:03;;;;;;;19.27;15.90;;;;;;;9.20;80.92;102040.31;4161589;28;20506;-59
2021/12/13 07:56:06;;;;;;;20.35;15.57;;;;;;;9.19;80.74;102043.75;4149469;28;20042;-59
2021/12/13 07:58:09;;;;;;;22.02;16.13;;;;;;;9.22;80.68;102039.56;4159317;28;20041;-62
2021/12/13 08:00:16;;;;;;;19.65;16.08;;;;;;;9.26;80.80;102040.63;4164220;28;20421;-57
2021/12/13 08:02:25;;;;;;;20.42;15.15;;;;;;;9.24;80.78;102040.56;4163865;28;20095;-63
2021/12/13 08:04:32;;;;;;;24.27;17.42;;;;;;;9.30;80.67;102052.91;4158762;28;20124;-58
2021/12/13 08:06:52;;;;;;;21.23;16.50;;;;;;;9.34;80.51;102043.53;4163761;28;20052;-59
2021/12/13 08:08:59;;;;;;;22.48;17.77;;;;;;;9.35;80.24;102047.94;4160062;28;20038;-59
2021/12/13 08:11:04;;;;;;;22.27;18.45;;;;;;;9.31;80.80;102049.47;4163524;28;20076;-60
2021/12/13 08:13:09;;;;;;;24.65;18.55;;;;;;;9.36;80.47;102045.41;4164997;28;20045;-57
2021/12/13 08:15:16;;;;;;;22.88;18.08;;;;;;;9.38;79.82;102061.91;4164441;28;20116;-59
2021/12/13 08:17:22;;;;;;;22.95;17.50;;;;;;;9.39;80.05;102050.72;4163341;28;20037;-59
2021/12/13 08:19:34;;;;;;;25.98;18.75;;;;;;;9.43;80.05;102049.13;4163329;28;20742;-57
2021/12/13 08:21:40;;;;;;;26.38;18.33;;;;;;;9.47;79.90;102055.38;4161080;28;20697;-58
2021/12/13 08:23:46;;;;;;;24.08;18.70;;;;;;;9.41;80.25;102056.84;4164123;28;20046;-59
2021/12/13 08:25:54;;;;;;;27.38;18.83;;;;;;;9.48;80.17;102054.56;4161862;28;20053;-59
2021/12/13 08:28:00;;;;;;;21.65;15.98;;;;;;;9.52;79.82;102052.16;4170771;28;20093;-59
2021/12/13 08:30:11;;;;;;;35.38;30.27;;;;;;;9.55;80.15;102059.19;4163759;28;20088;-59
2021/12/13 08:32:18;;;;;;;23.55;18.25;;;;;;;9.56;79.62;102056.69;4163618;28;20041;-60
2021/12/13 08:34:26;;;;;;;23.67;18.65;;;;;;;9.61;79.57;102051.69;4160505;28;20037;-60
2021/12/13 08:36:34;;;;;;;23.20;18.08;;;;;;;9.65;79.69;102057.88;4163727;28;20387;-60
2021/12/13 08:38:45;;;;;;;24.48;18.67;;;;;;;9.69;79.36;102063.25;4164395;28;20069;-59
2021/12/13 08:40:50;;;;;;;24.80;18.63;;;;;;;9.73;79.77;102065.19;4176653;23;20046;-88
2021/12/13 08:43:07;;;;;;;26.45;19.27;;;;;;;9.70;79.28;102048.59;4146882;28;20049;-87
2021/12/13 08:51:22;;;;;;;24.70;19.05;;;;;;;9.91;78.71;102067.69;4142911;28;20054;-89
2021/12/13 08:53:38;;;;;;;27.38;17.77;;;;;;;10.07;78.82;102071.81;4145621;23;20133;-60
2021/12/13 08:55:51;;;;;;;24.48;18.73;;;;;;;10.12;78.28;102069.44;4154344;28;22023;-59
2021/12/13 08:57:59;;;;;;;26.77;19.02;;;;;;;10.12;77.89;102070.31;4160571;28;20053;-60
2021/12/13 09:00:17;;;;;;;23.15;18.08;;;;;;;10.09;78.13;102075.38;4161890;28;20051;-62
2021/12/13 09:02:21;;;;;;;25.98;17.90;;;;;;;10.10;78.32;102073.66;4159024;28;20048;-57
2021/12/13 09:04:27;;;;;;;25.63;19.00;;;;;;;10.14;78.02;102075.56;4160043;28;20041;-59
2021/12/13 09:06:32;;;;;;;24.75;18.98;;;;;;;10.19;78.13;102075.75;4161972;28;20486;-60
2021/12/13 09:08:41;;;;;;;24.52;18.30;;;;;;;10.29;78.25;102077.91;4161658;28;20042;-60
2021/12/13 09:10:50;;;;;;;23.25;17.60;;;;;;;10.36;77.36;102077.38;4155660;28;20042;-60
2021/12/13 09:12:58;;;;;;;22.15;18.08;;;;;;;10.30;77.30;102074.50;4160450;28;20124;-60
2021/12/13 09:15:06;;;;;;;23.55;18.83;;;;;;;10.36;77.20;102085.19;4161437;28;20072;-61
2021/12/13 09:17:16;;;;;;;22.73;19.27;;;;;;;10.40;77.68;102087.09;4145837;28;20053;-60
2021/12/13 09:19:23;;;;;;;22.63;19.27;;;;;;;10.43;76.96;102084.63;4160838;28;20049;-59
2021/12/13 09:21:26;;;;;;;21.77;18.35;;;;;;;10.43;76.94;102087.22;4159838;28;20096;-60
2021/12/13 09:23:40;;;;;;;23.90;18.88;;;;;;;10.46;77.21;102081.25;4149770;28;20498;-59
2021/12/13 09:25:47;;;;;;;24.38;17.85;;;;;;;10.39;76.75;102085.31;4134871;28;20093;-59
2021/12/13 09:27:55;;;;;;;25.80;20.92;;;;;;;10.36;77.95;102087.78;4163681;28;20077;-59
2021/12/13 09:30:03;;;;;;;23.77;18.40;;;;;;;10.35;77.28;102090.31;4161277;28;20465;-58
2021/12/13 09:32:12;;;;;;;25.90;19.77;;;;;;;10.30;77.32;102090.09;4159777;28;20044;-61
2021/12/13 09:34:19;;;;;;;23.45;19.10;;;;;;;10.25;78.20;102091.59;4160443;28;20052;-61
2021/12/13 09:36:26;;;;;;;25.33;20.48;;;;;;;10.19;78.40;102096.56;4163165;28;20442;-61
2021/12/13 09:38:53;;;;;;;23.23;18.50;;;;;;;10.16;78.21;102094.69;4162186;28;20052;-62
2021/12/13 09:41:06;;;;;;;23.40;18.80;;;;;;;10.12;78.06;102101.50;4162880;28;20041;-61
2021/12/13 09:43:09;;;;;;;21.55;17.25;;;;;;;10.07;78.79;102105.59;4162674;28;20087;-61
2021/12/13 09:45:14;;;;;;;32.60;18.90;;;;;;;10.08;78.74;102099.59;4162324;28;20072;-62
2021/12/13 09:47:20;;;;;;;24.38;17.55;;;;;;;10.12;78.64;102092.81;4158540;28;20041;-62
2021/12/13 09:49:28;;;;;;;22.17;17.42;;;;;;;10.17;78.64;102100.81;4161671;28;20055;-61
2021/12/13 09:51:37;;;;;;;22.83;18.02;;;;;;;10.22;78.14;102101.88;4158362;28;20081;-62
2021/12/13 09:53:41;;;;;;;22.83;17.95;;;;;;;10.22;78.35;102104.47;4161280;28;20041;-62
2021/12/13 09:55:48;;;;;;;21.25;18.27;;;;;;;10.24;78.52;102100.25;4161877;28;20037;-61
2021/12/13 09:57:56;;;;;;;20.50;16.98;;;;;;;10.31;78.54;102103.16;4159725;28;20056;-60
2021/12/13 10:00:00;;;;;;;22.23;18.05;;;;;;;10.35;77.59;102104.19;4157183;28;20554;-60
2021/12/13 10:02:11;;;;;;;22.73;17.20;;;;;;;10.41;77.90;102106.16;4162341;28;20056;-60
2021/12/13 10:04:17;;;;;;;24.00;18.23;;;;;;;10.33;77.58;102108.41;4158210;28;20067;-60
2021/12/13 10:06:25;;;;;;;23.02;18.38;;;;;;;10.40;78.54;102099.22;4161652;28;20049;-60
2021/12/13 10:08:40;;;;;;;22.75;18.35;;;;;;;10.37;78.43;102107.75;4157632;28;20057;-59